sensor_id;sensor_type;location;lat;lon;timestamp;pressure;altitude;pressure_sealevel;temperature;humidity
37486;BME280;23341;50.296;18.960;2022-10-16T00:02:23;113062.75;;;-144.43;95.14
37486;BME280;23341;50.296;18.960;2022-10-16T00:07:28;113062.75;;;-144.43;96.11
37486;BME280;23341;50.296;18.960;2022-10-16T00:12:31;113062.75;;;-144.43;95.75
37486;BME280;23341;50.296;18.960;2022-10-16T00:17:35;113062.75;;;-144.43;96.02
37486;BME280;23341;50.296;18.960;2022-10-16T00:22:39;113062.75;;;-144.43;97.26
37486;BME280;23341;50.296;18.960;2022-10-16T00:27:43;113062.75;;;-144.43;97.06
37486;BME280;23341;50.296;18.960;2022-10-16T00:32:46;113062.75;;;-144.43;97.69
37486;BME280;23341;50.296;18.960;2022-10-16T00:37:51;113062.75;;;-144.43;98.27
37486;BME280;23341;50.296;18.960;2022-10-16T00:42:54;113062.75;;;-144.43;99.54
37486;BME280;23341;50.296;18.960;2022-10-16T00:47:58;113062.75;;;-144.43;99.65
37486;BME280;23341;50.296;18.960;2022-10-16T00:53:03;113062.75;;;-144.43;100.00
37486;BME280;23341;50.296;18.960;2022-10-16T00:58:06;113062.75;;;-144.43;100.00
37486;BME280;23341;50.296;18.960;2022-10-16T01:03:25;113062.75;;;-144.43;100.00
37486;BME280;23341;50.296;18.960;2022-10-16T01:08:35;113062.75;;;-144.43;99.55
37486;BME280;23341;50.296;18.960;2022-10-16T01:13:44;113062.75;;;-144.43;99.69
37486;BME280;23341;50.296;18.960;2022-10-16T01:18:54;113062.75;;;-144.43;100.00
37486;BME280;23341;50.296;18.960;2022-10-16T01:24:03;113062.75;;;-144.43;100.00
37486;BME280;23341;50.296;18.960;2022-10-16T01:29:15;113062.75;;;-144.43;99.17
37486;BME280;23341;50.296;18.960;2022-10-16T01:34:25;113062.75;;;-144.43;99.19
37486;BME280;23341;50.296;18.960;2022-10-16T01:39:31;113062.75;;;-144.43;100.00
37486;BME280;23341;50.296;18.960;2022-10-16T01:44:38;113062.75;;;-144.43;99.84
37486;BME280;23341;50.296;18.960;2022-10-16T01:49:43;113062.75;;;-144.43;99.63
37486;BME280;23341;50.296;18.960;2022-10-16T01:54:49;113062.75;;;-144.43;100.00
37486;BME280;23341;50.296;18.960;2022-10-16T01:59:58;113062.75;;;-144.43;100.00
37486;BME280;23341;50.296;18.960;2022-10-16T02:05:16;113062.75;;;-144.43;100.00
37486;BME280;23341;50.296;18.960;2022-10-16T02:10:22;113062.75;;;-144.43;100.00
37486;BME280;23341;50.296;18.960;2022-10-16T02:15:28;113062.75;;;-144.43;100.00
37486;BME280;23341;50.296;18.960;2022-10-16T02:20:34;113062.75;;;-144.43;100.00
37486;BME280;23341;50.296;18.960;2022-10-16T02:25:43;113062.75;;;-144.43;100.00
37486;BME280;23341;50.296;18.960;2022-10-16T02:30:51;113062.75;;;-144.43;100.00
37486;BME280;23341;50.296;18.960;2022-10-16T02:35:57;113062.75;;;-144.43;100.00
37486;BME280;23341;50.296;18.960;2022-10-16T02:41:00;113062.75;;;-144.43;100.00
37486;BME280;23341;50.296;18.960;2022-10-16T02:46:05;113062.75;;;-144.43;100.00
37486;BME280;23341;50.296;18.960;2022-10-16T02:51:09;113062.75;;;-144.43;100.00
37486;BME280;23341;50.296;18.960;2022-10-16T02:56:12;113062.75;;;-144.43;100.00
37486;BME280;23341;50.296;18.960;2022-10-16T03:08:24;113062.75;;;-144.43;100.00
37486;BME280;23341;50.296;18.960;2022-10-16T03:13:27;113062.75;;;-144.43;100.00
37486;BME280;23341;50.296;18.960;2022-10-16T03:18:30;113062.75;;;-144.43;100.00
37486;BME280;23341;50.296;18.960;2022-10-16T03:23:35;113062.75;;;-144.43;100.00
37486;BME280;23341;50.296;18.960;2022-10-16T03:28:38;113062.75;;;-144.43;100.00
37486;BME280;23341;50.296;18.960;2022-10-16T03:33:42;113062.75;;;-144.43;100.00
37486;BME280;23341;50.296;18.960;2022-10-16T03:38:47;113062.75;;;-144.43;100.00
37486;BME280;23341;50.296;18.960;2022-10-16T03:43:50;113062.75;;;-144.43;100.00
37486;BME280;23341;50.296;18.960;2022-10-16T03:48:53;113062.75;;;-144.43;99.95
37486;BME280;23341;50.296;18.960;2022-10-16T03:53:58;113062.75;;;-144.43;99.29
37486;BME280;23341;50.296;18.960;2022-10-16T03:59:02;113062.75;;;-144.43;99.25
37486;BME280;23341;50.296;18.960;2022-10-16T04:04:05;113062.75;;;-144.43;99.63
37486;BME280;23341;50.296;18.960;2022-10-16T04:09:10;113062.75;;;-144.43;99.51
37486;BME280;23341;50.296;18.960;2022-10-16T04:14:13;113062.75;;;-144.43;98.86
37486;BME280;23341;50.296;18.960;2022-10-16T04:19:17;113062.75;;;-144.43;98.92
37486;BME280;23341;50.296;18.960;2022-10-16T04:24:22;113062.75;;;-144.43;99.25
37486;BME280;23341;50.296;18.960;2022-10-16T04:29:25;113062.75;;;-144.43;98.40
37486;BME280;23341;50.296;18.960;2022-10-16T04:34:28;113062.75;;;-144.43;98.16
37486;BME280;23341;50.296;18.960;2022-10-16T04:39:33;113062.75;;;-144.43;99.26
37486;BME280;23341;50.296;18.960;2022-10-16T04:44:36;113062.75;;;-144.43;99.73
37486;BME280;23341;50.296;18.960;2022-10-16T04:49:40;113062.75;;;-144.43;99.44
37486;BME280;23341;50.296;18.960;2022-10-16T04:54:45;113062.75;;;-144.43;99.98
37486;BME280;23341;50.296;18.960;2022-10-16T04:59:48;113062.75;;;-144.43;100.00
37486;BME280;23341;50.296;18.960;2022-10-16T05:04:51;113062.75;;;-144.43;100.00
37486;BME280;23341;50.296;18.960;2022-10-16T05:09:56;113062.75;;;-144.43;100.00
37486;BME280;23341;50.296;18.960;2022-10-16T05:15:00;113062.75;;;-144.43;100.00
37486;BME280;23341;50.296;18.960;2022-10-16T05:20:04;113062.75;;;-144.43;98.80
37486;BME280;23341;50.296;18.960;2022-10-16T05:25:09;113062.75;;;-144.43;98.54
37486;BME280;23341;50.296;18.960;2022-10-16T05:30:13;113062.75;;;-144.43;97.92
37486;BME280;23341;50.296;18.960;2022-10-16T05:35:17;113062.75;;;-144.43;97.64
37486;BME280;23341;50.296;18.960;2022-10-16T05:40:22;113062.75;;;-144.43;97.47
37486;BME280;23341;50.296;18.960;2022-10-16T05:45:26;113062.75;;;-144.43;97.82
37486;BME280;23341;50.296;18.960;2022-10-16T05:50:29;113062.75;;;-144.43;97.74
37486;BME280;23341;50.296;18.960;2022-10-16T05:55:34;113062.75;;;-144.43;97.26
37486;BME280;23341;50.296;18.960;2022-10-16T06:00:37;113062.75;;;-144.43;96.36
37486;BME280;23341;50.296;18.960;2022-10-16T06:05:41;113062.75;;;-144.43;95.86
37486;BME280;23341;50.296;18.960;2022-10-16T06:10:47;113062.75;;;-144.43;95.16
37486;BME280;23341;50.296;18.960;2022-10-16T06:15:51;113062.75;;;-144.43;95.01
37486;BME280;23341;50.296;18.960;2022-10-16T06:20:55;113062.75;;;-144.43;92.43
37486;BME280;23341;50.296;18.960;2022-10-16T06:26:06;113062.75;;;-144.43;93.99
37486;BME280;23341;50.296;18.960;2022-10-16T06:31:10;113062.75;;;-144.43;93.47
37486;BME280;23341;50.296;18.960;2022-10-16T06:36:15;113062.75;;;-144.43;90.39
37486;BME280;23341;50.296;18.960;2022-10-16T06:41:22;113062.75;;;-144.43;87.56
37486;BME280;23341;50.296;18.960;2022-10-16T06:46:26;113062.75;;;-144.43;76.05
37486;BME280;23341;50.296;18.960;2022-10-16T06:51:30;113062.75;;;-144.43;67.50
37486;BME280;23341;50.296;18.960;2022-10-16T06:56:41;113062.75;;;-144.43;61.67
37486;BME280;23341;50.296;18.960;2022-10-16T07:01:44;113062.75;;;-144.43;52.84
37486;BME280;23341;50.296;18.960;2022-10-16T07:06:48;113062.75;;;-144.43;58.71
37486;BME280;23341;50.296;18.960;2022-10-16T07:11:53;113062.75;;;-144.43;56.25
37486;BME280;23341;50.296;18.960;2022-10-16T07:16:56;113062.75;;;-144.43;64.39
37486;BME280;23341;50.296;18.960;2022-10-16T07:22:00;113062.75;;;-144.43;66.88
37486;BME280;23341;50.296;18.960;2022-10-16T07:27:05;113062.75;;;-144.43;70.89
37486;BME280;23341;50.296;18.960;2022-10-16T07:32:08;113062.75;;;-144.43;68.80
37486;BME280;23341;50.296;18.960;2022-10-16T07:37:12;113062.75;;;-144.43;65.34
37486;BME280;23341;50.296;18.960;2022-10-16T07:42:17;113062.75;;;-144.43;60.60
37486;BME280;23341;50.296;18.960;2022-10-16T07:47:20;113062.75;;;-144.43;64.04
37486;BME280;23341;50.296;18.960;2022-10-16T07:52:23;113062.75;;;-144.43;66.49
37486;BME280;23341;50.296;18.960;2022-10-16T07:57:28;113062.75;;;-144.43;69.26
37486;BME280;23341;50.296;18.960;2022-10-16T08:02:32;113062.75;;;-144.43;69.26
37486;BME280;23341;50.296;18.960;2022-10-16T08:07:35;113062.75;;;-144.43;64.63
37486;BME280;23341;50.296;18.960;2022-10-16T08:12:40;113062.75;;;-144.43;61.58
37486;BME280;23341;50.296;18.960;2022-10-16T08:17:43;113062.75;;;-144.43;63.66
37486;BME280;23341;50.296;18.960;2022-10-16T08:22:47;113062.75;;;-144.43;66.21
37486;BME280;23341;50.296;18.960;2022-10-16T08:27:52;113062.75;;;-144.43;65.29
37486;BME280;23341;50.296;18.960;2022-10-16T08:32:55;113062.75;;;-144.43;66.74
37486;BME280;23341;50.296;18.960;2022-10-16T08:38:00;113062.75;;;-144.43;64.34
37486;BME280;23341;50.296;18.960;2022-10-16T08:43:23;113062.75;;;-144.43;60.95
37486;BME280;23341;50.296;18.960;2022-10-16T08:48:34;113062.75;;;-144.43;60.19
37486;BME280;23341;50.296;18.960;2022-10-16T08:53:44;113062.75;;;-144.43;60.77
37486;BME280;23341;50.296;18.960;2022-10-16T08:58:51;113062.75;;;-144.43;62.07
37486;BME280;23341;50.296;18.960;2022-10-16T09:04:20;113062.75;;;-144.43;62.96
37486;BME280;23341;50.296;18.960;2022-10-16T09:09:38;113062.75;;;-144.43;63.80
37486;BME280;23341;50.296;18.960;2022-10-16T09:15:13;113062.75;;;-144.43;64.00
37486;BME280;23341;50.296;18.960;2022-10-16T09:20:28;113062.75;;;-144.43;62.49
37486;BME280;23341;50.296;18.960;2022-10-16T09:25:33;113062.75;;;-144.43;61.15
37486;BME280;23341;50.296;18.960;2022-10-16T09:30:39;113062.75;;;-144.43;60.04
37486;BME280;23341;50.296;18.960;2022-10-16T09:35:44;113062.75;;;-144.43;62.03
37486;BME280;23341;50.296;18.960;2022-10-16T09:40:48;113062.75;;;-144.43;63.60
37486;BME280;23341;50.296;18.960;2022-10-16T09:46:07;113062.75;;;-144.43;63.31
37486;BME280;23341;50.296;18.960;2022-10-16T09:51:18;113062.75;;;-144.43;62.32
37486;BME280;23341;50.296;18.960;2022-10-16T09:56:25;113062.75;;;-144.43;60.13
37486;BME280;23341;50.296;18.960;2022-10-16T10:01:36;113062.75;;;-144.43;58.76
37486;BME280;23341;50.296;18.960;2022-10-16T10:06:43;113062.75;;;-144.43;58.04
37486;BME280;23341;50.296;18.960;2022-10-16T10:11:53;113062.75;;;-144.43;59.42
37486;BME280;23341;50.296;18.960;2022-10-16T10:17:14;113062.75;;;-144.43;59.80
37486;BME280;23341;50.296;18.960;2022-10-16T10:22:30;113062.75;;;-144.43;59.04
37486;BME280;23341;50.296;18.960;2022-10-16T10:27:39;113062.75;;;-144.43;59.93
37486;BME280;23341;50.296;18.960;2022-10-16T10:32:54;113062.75;;;-144.43;60.37
37486;BME280;23341;50.296;18.960;2022-10-16T10:38:09;113062.75;;;-144.43;61.31
37486;BME280;23341;50.296;18.960;2022-10-16T10:43:27;113062.75;;;-144.43;62.02
37486;BME280;23341;50.296;18.960;2022-10-16T10:48:54;113062.75;;;-144.43;62.70
37486;BME280;23341;50.296;18.960;2022-10-16T10:54:13;113062.75;;;-144.43;63.84
37486;BME280;23341;50.296;18.960;2022-10-16T10:59:38;113062.75;;;-144.43;62.37
37486;BME280;23341;50.296;18.960;2022-10-16T11:10:27;113062.75;;;-144.43;63.20
37486;BME280;23341;50.296;18.960;2022-10-16T11:15:35;113062.75;;;-144.43;63.65
37486;BME280;23341;50.296;18.960;2022-10-16T11:20:42;113062.75;;;-144.43;64.00
37486;BME280;23341;50.296;18.960;2022-10-16T11:25:49;113062.75;;;-144.43;63.34
37486;BME280;23341;50.296;18.960;2022-10-16T11:30:57;113062.75;;;-144.43;63.19
37486;BME280;23341;50.296;18.960;2022-10-16T11:36:11;113062.75;;;-144.43;63.29
37486;BME280;23341;50.296;18.960;2022-10-16T11:41:22;113062.75;;;-144.43;61.01
37486;BME280;23341;50.296;18.960;2022-10-16T11:46:27;113062.75;;;-144.43;62.31
37486;BME280;23341;50.296;18.960;2022-10-16T11:51:36;113062.75;;;-144.43;61.58
37486;BME280;23341;50.296;18.960;2022-10-16T11:56:43;113062.75;;;-144.43;61.89
37486;BME280;23341;50.296;18.960;2022-10-16T12:01:51;113062.75;;;-144.43;60.07
37486;BME280;23341;50.296;18.960;2022-10-16T12:07:02;113062.75;;;-144.43;58.74
37486;BME280;23341;50.296;18.960;2022-10-16T12:12:24;113062.75;;;-144.43;59.74
37486;BME280;23341;50.296;18.960;2022-10-16T12:17:38;113062.75;;;-144.43;61.48
37486;BME280;23341;50.296;18.960;2022-10-16T12:22:59;113062.75;;;-144.43;60.68
37486;BME280;23341;50.296;18.960;2022-10-16T12:28:04;113062.75;;;-144.43;59.10
37486;BME280;23341;50.296;18.960;2022-10-16T12:33:20;113062.75;;;-144.43;59.21
37486;BME280;23341;50.296;18.960;2022-10-16T12:38:37;113062.75;;;-144.43;59.73
37486;BME280;23341;50.296;18.960;2022-10-16T12:43:43;113062.75;;;-144.43;61.08
37486;BME280;23341;50.296;18.960;2022-10-16T12:48:47;113062.75;;;-144.43;62.76
37486;BME280;23341;50.296;18.960;2022-10-16T12:54:14;113062.75;;;-144.43;63.17
37486;BME280;23341;50.296;18.960;2022-10-16T12:59:28;113062.75;;;-144.43;64.85
37486;BME280;23341;50.296;18.960;2022-10-16T13:04:47;113062.75;;;-144.43;65.91
37486;BME280;23341;50.296;18.960;2022-10-16T13:10:05;113062.75;;;-144.43;66.40
37486;BME280;23341;50.296;18.960;2022-10-16T13:15:35;113062.75;;;-144.43;66.63
37486;BME280;23341;50.296;18.960;2022-10-16T13:21:02;113062.75;;;-144.43;66.49
37486;BME280;23341;50.296;18.960;2022-10-16T13:26:17;113062.75;;;-144.43;63.52
37486;BME280;23341;50.296;18.960;2022-10-16T13:31:24;113062.75;;;-144.43;63.58
37486;BME280;23341;50.296;18.960;2022-10-16T13:36:29;113062.75;;;-144.43;64.92
37486;BME280;23341;50.296;18.960;2022-10-16T13:41:35;113062.75;;;-144.43;65.40
37486;BME280;23341;50.296;18.960;2022-10-16T13:46:38;113062.75;;;-144.43;64.41
37486;BME280;23341;50.296;18.960;2022-10-16T13:51:53;113062.75;;;-144.43;60.87
37486;BME280;23341;50.296;18.960;2022-10-16T13:57:05;113062.75;;;-144.43;59.22
37486;BME280;23341;50.296;18.960;2022-10-16T14:02:30;113062.75;;;-144.43;59.75
37486;BME280;23341;50.296;18.960;2022-10-16T14:07:37;113062.75;;;-144.43;58.49
37486;BME280;23341;50.296;18.960;2022-10-16T14:12:43;113062.75;;;-144.43;60.36
37486;BME280;23341;50.296;18.960;2022-10-16T14:17:50;113062.75;;;-144.43;59.09
37486;BME280;23341;50.296;18.960;2022-10-16T14:23:02;113062.75;;;-144.43;58.11
37486;BME280;23341;50.296;18.960;2022-10-16T14:28:17;113062.75;;;-144.43;59.05
37486;BME280;23341;50.296;18.960;2022-10-16T14:33:23;113062.75;;;-144.43;59.08
37486;BME280;23341;50.296;18.960;2022-10-16T14:38:28;113062.75;;;-144.43;59.95
37486;BME280;23341;50.296;18.960;2022-10-16T14:43:37;113062.75;;;-144.43;59.70
37486;BME280;23341;50.296;18.960;2022-10-16T14:48:41;113062.75;;;-144.43;62.05
37486;BME280;23341;50.296;18.960;2022-10-16T14:53:45;113062.75;;;-144.43;63.02
37486;BME280;23341;50.296;18.960;2022-10-16T14:58:50;113062.75;;;-144.43;62.77
37486;BME280;23341;50.296;18.960;2022-10-16T15:03:54;113062.75;;;-144.43;62.49
37486;BME280;23341;50.296;18.960;2022-10-16T15:08:58;113062.75;;;-144.43;62.19
37486;BME280;23341;50.296;18.960;2022-10-16T15:14:03;113062.75;;;-144.43;62.46
37486;BME280;23341;50.296;18.960;2022-10-16T15:19:07;113062.75;;;-144.43;63.28
37486;BME280;23341;50.296;18.960;2022-10-16T15:24:12;113062.75;;;-144.43;64.43
37486;BME280;23341;50.296;18.960;2022-10-16T15:29:23;113062.75;;;-144.43;65.89
37486;BME280;23341;50.296;18.960;2022-10-16T15:34:26;113062.75;;;-144.43;67.32
37486;BME280;23341;50.296;18.960;2022-10-16T15:39:29;113062.75;;;-144.43;68.42
37486;BME280;23341;50.296;18.960;2022-10-16T15:44:34;113062.75;;;-144.43;68.90
37486;BME280;23341;50.296;18.960;2022-10-16T15:49:38;113062.75;;;-144.43;69.71
37486;BME280;23341;50.296;18.960;2022-10-16T15:54:41;113062.75;;;-144.43;69.76
37486;BME280;23341;50.296;18.960;2022-10-16T15:59:46;113062.75;;;-144.43;70.50
37486;BME280;23341;50.296;18.960;2022-10-16T16:04:50;113062.75;;;-144.43;71.55
37486;BME280;23341;50.296;18.960;2022-10-16T16:09:53;113062.75;;;-144.43;72.34
37486;BME280;23341;50.296;18.960;2022-10-16T16:14:58;113062.75;;;-144.43;72.72
37486;BME280;23341;50.296;18.960;2022-10-16T16:20:07;113062.75;;;-144.43;73.25
37486;BME280;23341;50.296;18.960;2022-10-16T16:25:11;113062.75;;;-144.43;74.13
37486;BME280;23341;50.296;18.960;2022-10-16T16:30:16;113062.75;;;-144.43;74.13
37486;BME280;23341;50.296;18.960;2022-10-16T16:35:23;113062.75;;;-144.43;74.40
37486;BME280;23341;50.296;18.960;2022-10-16T16:40:27;113062.75;;;-144.43;74.04
37486;BME280;23341;50.296;18.960;2022-10-16T16:45:34;113062.75;;;-144.43;74.89
37486;BME280;23341;50.296;18.960;2022-10-16T16:50:38;113062.75;;;-144.43;75.70
37486;BME280;23341;50.296;18.960;2022-10-16T16:55:41;113062.75;;;-144.43;76.46
37486;BME280;23341;50.296;18.960;2022-10-16T17:00:47;113062.75;;;-144.43;76.69
37486;BME280;23341;50.296;18.960;2022-10-16T17:06:05;113062.75;;;-144.43;76.89
37486;BME280;23341;50.296;18.960;2022-10-16T17:11:12;113062.75;;;-144.43;78.29
37486;BME280;23341;50.296;18.960;2022-10-16T17:16:18;113062.75;;;-144.43;78.36
37486;BME280;23341;50.296;18.960;2022-10-16T17:21:21;113062.75;;;-144.43;79.28
37486;BME280;23341;50.296;18.960;2022-10-16T17:26:25;113062.75;;;-144.43;80.12
37486;BME280;23341;50.296;18.960;2022-10-16T17:31:33;113062.75;;;-144.43;80.28
37486;BME280;23341;50.296;18.960;2022-10-16T17:36:38;113062.75;;;-144.43;80.09
37486;BME280;23341;50.296;18.960;2022-10-16T17:41:45;113062.75;;;-144.43;80.42
37486;BME280;23341;50.296;18.960;2022-10-16T17:46:52;113062.75;;;-144.43;80.49
37486;BME280;23341;50.296;18.960;2022-10-16T17:51:56;113062.75;;;-144.43;80.63
37486;BME280;23341;50.296;18.960;2022-10-16T17:57:00;113062.75;;;-144.43;81.94
37486;BME280;23341;50.296;18.960;2022-10-16T18:02:05;113062.75;;;-144.43;82.79
37486;BME280;23341;50.296;18.960;2022-10-16T18:07:09;113062.75;;;-144.43;83.36
37486;BME280;23341;50.296;18.960;2022-10-16T18:12:12;113062.75;;;-144.43;82.97
37486;BME280;23341;50.296;18.960;2022-10-16T18:17:17;113062.75;;;-144.43;83.73
37486;BME280;23341;50.296;18.960;2022-10-16T18:22:21;113062.75;;;-144.43;83.59
37486;BME280;23341;50.296;18.960;2022-10-16T18:27:25;113062.75;;;-144.43;85.10
37486;BME280;23341;50.296;18.960;2022-10-16T18:32:30;113062.75;;;-144.43;85.54
37486;BME280;23341;50.296;18.960;2022-10-16T18:37:34;113062.75;;;-144.43;85.91
37486;BME280;23341;50.296;18.960;2022-10-16T18:42:38;113062.75;;;-144.43;86.42
37486;BME280;23341;50.296;18.960;2022-10-16T18:47:43;113062.75;;;-144.43;87.22
37486;BME280;23341;50.296;18.960;2022-10-16T18:52:47;113062.75;;;-144.43;87.00
37486;BME280;23341;50.296;18.960;2022-10-16T18:57:50;113062.75;;;-144.43;87.45
37486;BME280;23341;50.296;18.960;2022-10-16T19:02:57;113062.75;;;-144.43;87.98
37486;BME280;23341;50.296;18.960;2022-10-16T19:08:01;113062.75;;;-144.43;87.75
37486;BME280;23341;50.296;18.960;2022-10-16T19:13:04;113062.75;;;-144.43;88.18
37486;BME280;23341;50.296;18.960;2022-10-16T19:18:13;113062.75;;;-144.43;88.03
37486;BME280;23341;50.296;18.960;2022-10-16T19:23:17;113062.75;;;-144.43;88.03
37486;BME280;23341;50.296;18.960;2022-10-16T19:28:23;113062.75;;;-144.43;87.02
37486;BME280;23341;50.296;18.960;2022-10-16T19:33:33;113062.75;;;-144.43;86.47
37486;BME280;23341;50.296;18.960;2022-10-16T19:38:37;113062.75;;;-144.43;87.08
37486;BME280;23341;50.296;18.960;2022-10-16T19:43:41;113062.75;;;-144.43;88.41
37486;BME280;23341;50.296;18.960;2022-10-16T19:48:47;113062.75;;;-144.43;89.24
37486;BME280;23341;50.296;18.960;2022-10-16T19:53:53;113062.75;;;-144.43;88.90
37486;BME280;23341;50.296;18.960;2022-10-16T19:58:58;113062.75;;;-144.43;88.90
37486;BME280;23341;50.296;18.960;2022-10-16T20:04:03;113062.75;;;-144.43;89.66
37486;BME280;23341;50.296;18.960;2022-10-16T20:09:07;113062.75;;;-144.43;89.17
37486;BME280;23341;50.296;18.960;2022-10-16T20:14:10;113062.75;;;-144.43;89.23
37486;BME280;23341;50.296;18.960;2022-10-16T20:19:15;113062.75;;;-144.43;89.64
37486;BME280;23341;50.296;18.960;2022-10-16T20:24:18;113062.75;;;-144.43;89.76
37486;BME280;23341;50.296;18.960;2022-10-16T20:29:22;113062.75;;;-144.43;90.50
37486;BME280;23341;50.296;18.960;2022-10-16T20:34:27;113062.75;;;-144.43;90.59
37486;BME280;23341;50.296;18.960;2022-10-16T20:39:30;113062.75;;;-144.43;90.36
37486;BME280;23341;50.296;18.960;2022-10-16T20:44:33;113062.75;;;-144.43;90.48
37486;BME280;23341;50.296;18.960;2022-10-16T20:49:38;113062.75;;;-144.43;90.39
37486;BME280;23341;50.296;18.960;2022-10-16T20:54:43;113062.75;;;-144.43;90.46
37486;BME280;23341;50.296;18.960;2022-10-16T20:59:47;113062.75;;;-144.43;89.89
37486;BME280;23341;50.296;18.960;2022-10-16T21:04:57;113062.75;;;-144.43;90.14
37486;BME280;23341;50.296;18.960;2022-10-16T21:10:01;113062.75;;;-144.43;89.80
37486;BME280;23341;50.296;18.960;2022-10-16T21:15:05;113062.75;;;-144.43;90.42
37486;BME280;23341;50.296;18.960;2022-10-16T21:20:19;113062.75;;;-144.43;90.26
37486;BME280;23341;50.296;18.960;2022-10-16T21:25:22;113062.75;;;-144.43;91.16
37486;BME280;23341;50.296;18.960;2022-10-16T21:30:26;113062.75;;;-144.43;91.11
37486;BME280;23341;50.296;18.960;2022-10-16T21:35:30;113062.75;;;-144.43;91.14
37486;BME280;23341;50.296;18.960;2022-10-16T21:40:34;113062.75;;;-144.43;91.19
37486;BME280;23341;50.296;18.960;2022-10-16T21:45:37;113062.75;;;-144.43;91.63
37486;BME280;23341;50.296;18.960;2022-10-16T21:50:47;113062.75;;;-144.43;91.96
37486;BME280;23341;50.296;18.960;2022-10-16T21:55:50;113062.75;;;-144.43;93.38
37486;BME280;23341;50.296;18.960;2022-10-16T22:00:54;113062.75;;;-144.43;93.89
37486;BME280;23341;50.296;18.960;2022-10-16T22:06:01;113062.75;;;-144.43;93.52
37486;BME280;23341;50.296;18.960;2022-10-16T22:11:09;113062.75;;;-144.43;94.00
37486;BME280;23341;50.296;18.960;2022-10-16T22:16:14;113062.75;;;-144.43;93.71
37486;BME280;23341;50.296;18.960;2022-10-16T22:21:19;113062.75;;;-144.43;92.81
37486;BME280;23341;50.296;18.960;2022-10-16T22:26:22;113062.75;;;-144.43;92.91
37486;BME280;23341;50.296;18.960;2022-10-16T22:31:26;113062.75;;;-144.43;93.21
37486;BME280;23341;50.296;18.960;2022-10-16T22:36:32;113062.75;;;-144.43;92.62
37486;BME280;23341;50.296;18.960;2022-10-16T22:41:35;113062.75;;;-144.43;93.78
37486;BME280;23341;50.296;18.960;2022-10-16T22:46:39;113062.75;;;-144.43;92.94
37486;BME280;23341;50.296;18.960;2022-10-16T22:51:44;113062.75;;;-144.43;92.65
37486;BME280;23341;50.296;18.960;2022-10-16T22:56:47;113062.75;;;-144.43;92.81
37486;BME280;23341;50.296;18.960;2022-10-16T23:01:50;113062.75;;;-144.43;93.14
37486;BME280;23341;50.296;18.960;2022-10-16T23:06:55;113062.75;;;-144.43;93.38
37486;BME280;23341;50.296;18.960;2022-10-16T23:12:00;113062.75;;;-144.43;93.99
37486;BME280;23341;50.296;18.960;2022-10-16T23:17:03;113062.75;;;-144.43;94.67
37486;BME280;23341;50.296;18.960;2022-10-16T23:22:08;113062.75;;;-144.43;94.25
37486;BME280;23341;50.296;18.960;2022-10-16T23:27:11;113062.75;;;-144.43;94.64
37486;BME280;23341;50.296;18.960;2022-10-16T23:32:14;113062.75;;;-144.43;94.15
37486;BME280;23341;50.296;18.960;2022-10-16T23:37:19;113062.75;;;-144.43;93.66
37486;BME280;23341;50.296;18.960;2022-10-16T23:42:22;113062.75;;;-144.43;93.68
37486;BME280;23341;50.296;18.960;2022-10-16T23:47:26;113062.75;;;-144.43;93.84
37486;BME280;23341;50.296;18.960;2022-10-16T23:52:32;113062.75;;;-144.43;93.45
37486;BME280;23341;50.296;18.960;2022-10-16T23:57:35;113062.75;;;-144.43;92.97
